Angra dos Reis, Brazil
Current Conditions -  °F | °C
As of 8:00 PM on Sunday 25 Jan 2015 (Local Time) from SBSC Reporting Station
Scattered Clouds Scattered Clouds  
Wind Chill: 82°   Ceiling: Unl
Heat Index: 83°   Visibility: 6mi
Dew Point: 61°   Wind: 12mph
Humidity: 48%   Direction: 170°S
Pressure: 29.8"   Gusts: NA
Location:  23°S, 44.32°W
Report Text: SBSC 252200Z 17010KT 9999 SCT030 FEW035TCU 28/16 Q1009
Loading
Personal Weather Stations






























Interactive Weather Map New forecast layout! Learn more

10-Day Weather Forecast

Advertisements
Track Severe Weather on mobile